Time;durP1;ratioP1;P1;durP2;ratioP2;P2;SDS_P1;SDS_P2;PMS_P1;PMS_P2;Temp;Humidity;BMP_temperature;BMP_pressure;BME280_temperature;BME280_humidity;BME280_pressure;Samples;Min_cycle;Max_cycle;Signal;HPM_P1;HPM_P2
2021/06/04 00:00:45;;;;;;;6.05;3.97;;;;;;;16.11;100.00;98231.69;5037321;28;20041;-85
2021/06/04 00:03:22;;;;;;;11.07;3.72;;;;;;;16.29;100.00;98232.31;5038032;28;20037;-86
2021/06/04 00:05:55;;;;;;;9.98;3.60;;;;;;;16.46;100.00;98228.63;5020248;28;20045;-85
2021/06/04 00:08:24;;;;;;;7.88;3.90;;;;;;;16.65;100.00;98250.75;5041726;28;20037;-85
2021/06/04 00:11:08;;;;;;;7.70;3.90;;;;;;;16.74;100.00;98227.66;5020792;28;20056;-85
2021/06/04 00:13:41;;;;;;;11.52;4.07;;;;;;;16.74;100.00;98221.41;5022195;28;20480;-85
2021/06/04 00:16:30;;;;;;;7.95;3.40;;;;;;;16.95;100.00;98243.97;5006767;28;20072;-85
2021/06/04 00:19:07;;;;;;;9.43;3.75;;;;;;;16.92;100.00;98225.50;5012356;28;20053;-85
2021/06/04 00:21:38;;;;;;;6.90;3.40;;;;;;;16.95;100.00;98224.03;5024622;28;20055;-85
2021/06/04 00:24:28;;;;;;;;;;;;;;;;;;;;;
2021/06/04 00:31:52;;;;;;;6.93;4.10;;;;;;;17.00;100.00;98232.81;4981070;28;20069;-85
2021/06/04 00:34:28;;;;;;;9.20;3.60;;;;;;;16.99;100.00;98223.00;4964323;28;20084;-85
2021/06/04 00:37:09;;;;;;;7.95;3.70;;;;;;;17.02;100.00;98229.72;4964274;28;20065;-84
2021/06/04 00:39:38;;;;;;;4.93;3.22;;;;;;;16.98;100.00;98226.09;4970080;28;20101;-85
2021/06/04 00:42:17;;;;;;;8.23;3.65;;;;;;;17.08;100.00;98234.63;4957368;28;20047;-85
2021/06/04 00:44:57;;;;;;;6.20;3.80;;;;;;;17.03;100.00;98226.66;4956291;28;20058;-85
2021/06/04 00:47:34;;;;;;;5.90;3.63;;;;;;;17.07;100.00;98237.69;4950042;28;20042;-85
2021/06/04 00:50:11;;;;;;;7.05;3.47;;;;;;;16.94;100.00;98223.22;4954252;28;20299;-85
2021/06/04 00:53:02;;;;;;;7.43;3.65;;;;;;;16.97;100.00;98213.53;4976929;28;20049;-85
2021/06/04 00:56:06;;;;;;;6.53;3.80;;;;;;;16.91;100.00;98204.75;4962010;28;20054;-85
2021/06/04 00:58:44;;;;;;;9.82;3.60;;;;;;;16.98;100.00;98210.44;4956000;28;20046;-85
2021/06/04 01:01:46;;;;;;;7.60;3.67;;;;;;;17.15;100.00;98226.66;4963964;28;20038;-83
2021/06/04 01:04:48;;;;;;;8.00;3.70;;;;;;;17.05;100.00;98229.03;4988775;28;20041;-85
2021/06/04 01:07:35;;;;;;;4.95;3.35;;;;;;;17.05;100.00;98229.03;5020782;28;20101;-84
2021/06/04 01:10:24;;;;;;;6.35;3.30;;;;;;;17.05;100.00;98224.38;5034282;28;20045;-83
2021/06/04 01:13:13;;;;;;;4.32;3.45;;;;;;;16.99;100.00;98214.00;5056559;28;20059;-85
2021/06/04 01:16:07;;;;;;;9.20;3.40;;;;;;;17.07;100.00;98235.75;5036056;28;20103;-84
2021/06/04 01:18:45;;;;;;;5.10;3.42;;;;;;;17.07;100.00;98219.34;5021641;28;20045;-84
2021/06/04 01:21:43;;;;;;;7.10;4.10;;;;;;;16.95;100.00;98208.44;5042328;28;20072;-84
2021/06/04 01:24:50;;;;;;;8.40;3.83;;;;;;;17.16;100.00;98227.44;5023549;28;20072;-84
2021/06/04 01:27:39;;;;;;;6.55;3.70;;;;;;;17.11;100.00;98227.69;5024390;28;20037;-84
2021/06/04 01:30:37;;;;;;;8.82;3.90;;;;;;;17.14;100.00;98221.50;5010701;28;20075;-84
2021/06/04 01:33:26;;;;;;;6.55;3.38;;;;;;;17.06;100.00;98206.03;5024714;28;20053;-84
2021/06/04 01:35:59;;;;;;;7.53;3.50;;;;;;;17.09;100.00;98214.34;5043345;28;20061;-84
2021/06/04 01:38:40;;;;;;;7.60;3.90;;;;;;;16.99;100.00;98211.25;5027221;28;20042;-82
2021/06/04 01:41:14;;;;;;;10.20;3.55;;;;;;;17.03;100.00;98221.19;5025213;28;20061;-82
2021/06/04 01:43:54;;;;;;;5.70;3.45;;;;;;;17.08;100.00;98226.44;5027203;28;20063;-82
2021/06/04 01:46:49;;;;;;;6.68;3.75;;;;;;;17.15;100.00;98223.09;5028842;28;20064;-84
2021/06/04 01:49:44;;;;;;;5.43;3.03;;;;;;;17.24;100.00;98215.59;5043471;28;20075;-83
2021/06/04 01:52:27;;;;;;;5.25;3.42;;;;;;;17.25;100.00;98212.50;5030744;28;20489;-83
2021/06/04 01:55:00;;;;;;;10.20;3.75;;;;;;;17.26;100.00;98218.78;5035766;28;20045;-83
2021/06/04 01:57:34;;;;;;;5.22;3.40;;;;;;;17.23;100.00;98213.97;5052870;28;20056;-84
2021/06/04 02:00:07;;;;;;;10.63;3.67;;;;;;;17.22;100.00;98212.38;5055036;28;20026;-84
2021/06/04 02:02:40;;;;;;;7.38;3.70;;;;;;;17.18;100.00;98206.81;5053878;28;20089;-83
2021/06/04 02:05:40;;;;;;;6.55;3.38;;;;;;;17.16;100.00;98217.28;5030440;28;20045;-84
2021/06/04 02:08:22;;;;;;;6.38;3.72;;;;;;;17.11;100.00;98200.31;5031490;28;20049;-85
2021/06/04 02:15:29;;;;;;;8.85;3.40;;;;;;;17.24;100.00;98208.16;5057346;28;20122;-85
2021/06/04 02:19:01;;;;;;;7.05;3.75;;;;;;;17.23;100.00;98205.78;5007576;28;20053;-84
2021/06/04 02:22:06;;;;;;;8.18;3.80;;;;;;;17.20;100.00;98190.03;5029435;28;20068;-85
2021/06/04 02:25:10;;;;;;;8.23;4.20;;;;;;;17.11;100.00;98175.69;5045510;28;20044;-84
2021/06/04 02:27:41;;;;;;;7.00;3.72;;;;;;;17.28;100.00;98202.81;5031112;28;20049;-84
2021/06/04 02:30:25;;;;;;;9.23;3.90;;;;;;;17.10;100.00;98172.16;5045063;28;20095;-85
2021/06/04 02:33:20;;;;;;;11.80;3.75;;;;;;;17.09;100.00;98178.75;5032311;28;20056;-85
2021/06/04 02:36:22;;;;;;;5.95;4.00;;;;;;;17.16;100.00;98184.44;5030108;28;20053;-84
2021/06/04 02:39:17;;;;;;;12.98;4.10;;;;;;;17.16;100.00;98197.34;5018571;28;20103;-84
2021/06/04 02:42:07;;;;;;;8.85;3.60;;;;;;;17.24;100.00;98210.13;5042738;28;20685;-83
2021/06/04 02:45:01;;;;;;;7.30;3.78;;;;;;;17.01;100.00;98171.47;5034444;28;20064;-83
2021/06/04 02:47:42;;;;;;;8.98;4.00;;;;;;;17.02;100.00;98177.75;5023686;28;20088;-84
2021/06/04 02:50:17;;;;;;;7.07;3.70;;;;;;;16.97;100.00;98197.94;5026365;28;20053;-83
2021/06/04 02:52:52;;;;;;;7.20;4.40;;;;;;;16.92;100.00;98202.81;5025187;28;20045;-84
2021/06/04 02:55:28;;;;;;;6.75;3.97;;;;;;;16.80;100.00;98190.75;5040105;28;20042;-84
2021/06/04 02:57:57;;;;;;;6.30;3.83;;;;;;;16.79;100.00;98191.09;5022340;28;20048;-84
2021/06/04 03:00:37;;;;;;;12.73;3.88;;;;;;;16.79;100.00;98204.75;5023161;28;20053;-84
2021/06/04 03:03:09;;;;;;;7.60;3.58;;;;;;;16.79;100.00;98193.81;5031164;28;20057;-85
2021/06/04 03:05:39;;;;;;;7.53;4.03;;;;;;;16.82;100.00;98198.63;5040576;28;20052;-84
2021/06/04 03:08:19;;;;;;;9.35;4.05;;;;;;;16.73;100.00;98200.66;5026225;28;20452;-85
2021/06/04 03:10:48;;;;;;;6.93;3.83;;;;;;;16.71;100.00;98211.13;5026714;28;20041;-84
2021/06/04 03:13:27;;;;;;;8.35;4.03;;;;;;;16.74;100.00;98205.00;5026057;28;20049;-85
2021/06/04 03:16:05;;;;;;;7.47;4.18;;;;;;;16.56;100.00;98193.47;5041808;28;20057;-84
2021/06/04 03:18:48;;;;;;;7.95;4.05;;;;;;;16.81;100.00;98213.41;5027074;28;20045;-85
2021/06/04 03:21:29;;;;;;;9.63;4.55;;;;;;;16.62;100.00;98194.81;5027288;28;20139;-85
2021/06/04 03:24:00;;;;;;;7.80;4.10;;;;;;;16.68;100.00;98207.16;5044261;28;20168;-85
2021/06/04 03:26:40;;;;;;;9.45;4.10;;;;;;;16.69;100.00;98205.22;5045231;28;20091;-84
2021/06/04 03:29:19;;;;;;;9.75;4.47;;;;;;;16.75;100.00;98207.38;5030869;28;20045;-84
2021/06/04 03:31:52;;;;;;;9.95;4.10;;;;;;;16.87;100.00;98222.19;5053549;23;20040;-77
2021/06/04 03:34:19;;;;;;;7.07;4.57;;;;;;;16.83;100.00;98211.13;5087137;28;20055;-78
2021/06/04 03:36:50;;;;;;;8.85;4.03;;;;;;;16.88;100.00;98215.59;5089474;28;20041;-76
2021/06/04 03:39:24;;;;;;;6.88;4.10;;;;;;;16.93;100.00;98205.22;5091234;28;20040;-77
2021/06/04 03:41:52;;;;;;;9.77;4.03;;;;;;;16.96;100.00;98211.94;5091386;28;20053;-78
2021/06/04 03:44:24;;;;;;;7.55;4.18;;;;;;;16.94;100.00;98211.47;5073071;28;20049;-77
2021/06/04 03:46:51;;;;;;;7.72;4.20;;;;;;;17.00;100.00;98215.59;5074357;28;20045;-78
2021/06/04 03:49:20;;;;;;;10.40;4.00;;;;;;;17.01;100.00;98217.19;5085141;28;20040;-78
2021/06/04 03:51:49;;;;;;;10.40;4.18;;;;;;;16.96;100.00;98222.88;5063551;28;20101;-78
2021/06/04 03:54:23;;;;;;;9.43;4.05;;;;;;;16.97;100.00;98217.06;5092611;28;20045;-76
2021/06/04 03:56:50;;;;;;;7.05;4.38;;;;;;;17.00;100.00;98213.66;5094454;28;20078;-76
2021/06/04 03:59:17;;;;;;;5.70;3.78;;;;;;;17.01;100.00;98217.97;5090874;28;20044;-77
2021/06/04 04:01:50;;;;;;;7.35;3.88;;;;;;;17.09;100.00;98225.28;5090477;28;20115;-79
2021/06/04 04:04:19;;;;;;;6.80;4.00;;;;;;;17.19;100.00;98226.75;5087902;28;20051;-77
2021/06/04 04:06:45;;;;;;;8.13;3.90;;;;;;;17.19;100.00;98224.00;5078119;28;20049;-77
2021/06/04 04:09:13;;;;;;;6.97;3.80;;;;;;;17.24;100.00;98229.28;5076265;28;20427;-78
2021/06/04 04:11:41;;;;;;;5.32;4.05;;;;;;;17.27;100.00;98223.09;5075982;28;20041;-77
2021/06/04 04:14:14;;;;;;;8.30;4.10;;;;;;;17.38;100.00;98221.50;5075067;28;20056;-78
2021/06/04 04:16:42;;;;;;;7.20;4.15;;;;;;;17.39;100.00;98212.16;5057674;28;20051;-78
2021/06/04 04:19:09;;;;;;;8.40;4.15;;;;;;;17.48;100.00;98228.41;5076351;28;20445;-77
2021/06/04 04:21:37;;;;;;;8.93;4.30;;;;;;;17.44;100.00;98231.88;5074982;28;20620;-77
2021/06/04 04:24:10;;;;;;;9.20;4.60;;;;;;;17.37;100.00;98228.09;5074665;28;20435;-78
2021/06/04 04:26:40;;;;;;;9.95;4.22;;;;;;;17.43;100.00;98234.94;5057052;28;20047;-78
2021/06/04 04:29:07;;;;;;;11.88;4.03;;;;;;;17.53;100.00;98220.78;5057524;28;20048;-77
2021/06/04 04:31:38;;;;;;;10.15;4.32;;;;;;;17.63;100.00;98230.47;5073368;28;20040;-77
2021/06/04 04:34:06;;;;;;;8.50;3.97;;;;;;;17.75;100.00;98231.25;5075486;28;20048;-77
2021/06/04 04:36:41;;;;;;;7.03;3.80;;;;;;;17.85;100.00;98235.44;5075459;28;20086;-77
2021/06/04 04:39:12;;;;;;;11.23;3.90;;;;;;;17.93;100.00;98235.31;5059058;28;20051;-79
2021/06/04 04:41:39;;;;;;;13.65;3.92;;;;;;;17.96;100.00;98234.59;5077244;28;20047;-78
2021/06/04 04:44:07;;;;;;;7.55;3.70;;;;;;;17.95;100.00;98234.94;5078597;28;20097;-79
2021/06/04 04:46:35;;;;;;;7.47;3.65;;;;;;;17.94;100.00;98225.94;5059274;28;20047;-79
2021/06/04 04:49:02;;;;;;;10.27;4.18;;;;;;;18.07;100.00;98225.91;5060829;28;20033;-79
2021/06/04 04:51:31;;;;;;;8.65;3.90;;;;;;;18.16;100.00;98232.00;5060028;28;20044;-79
2021/06/04 04:53:58;;;;;;;7.60;4.32;;;;;;;18.24;100.00;98233.81;5076553;28;20052;-78
2021/06/04 04:56:25;;;;;;;7.43;3.90;;;;;;;18.32;100.00;98217.22;5059678;28;20070;-79
2021/06/04 04:58:52;;;;;;;6.18;3.65;;;;;;;18.42;100.00;98224.91;5059088;28;20040;-78
2021/06/04 05:01:21;;;;;;;7.28;3.60;;;;;;;18.48;100.00;98229.00;5058133;28;20052;-79
2021/06/04 05:03:48;;;;;;;9.77;4.18;;;;;;;18.47;100.00;98226.63;5057351;28;20059;-79
2021/06/04 05:06:14;;;;;;;6.28;3.42;;;;;;;18.56;100.00;98225.31;5076203;28;20110;-81
2021/06/04 05:08:41;;;;;;;13.68;4.63;;;;;;;18.55;100.00;98237.44;5075660;28;20045;-79
2021/06/04 05:11:08;;;;;;;15.30;4.95;;;;;;;18.36;100.00;98231.00;5074224;28;20032;-79
2021/06/04 05:13:37;;;;;;;9.73;4.57;;;;;;;18.25;100.00;98230.69;5075168;28;20094;-79
2021/06/04 05:16:04;;;;;;;6.28;4.43;;;;;;;18.26;100.00;98232.31;5055321;28;20045;-79
2021/06/04 05:18:33;;;;;;;7.82;4.75;;;;;;;18.26;100.00;98232.31;5055413;28;20053;-78
2021/06/04 05:21:02;;;;;;;9.25;4.05;;;;;;;18.20;100.00;98232.88;5054917;28;20077;-79
2021/06/04 05:23:31;;;;;;;6.32;4.15;;;;;;;18.34;100.00;98230.56;5057636;28;20044;-79
2021/06/04 05:25:58;;;;;;;8.10;4.13;;;;;;;18.40;100.00;98227.19;5052387;28;20545;-78
2021/06/04 05:28:27;;;;;;;11.00;4.32;;;;;;;18.35;100.00;98223.94;5063638;28;20041;-79
2021/06/04 05:31:01;;;;;;;7.00;4.00;;;;;;;18.45;100.00;98226.16;5073784;28;20059;-79
2021/06/04 05:33:31;;;;;;;10.23;4.30;;;;;;;18.50;100.00;98232.22;5058007;28;20108;-78
2021/06/04 05:36:05;;;;;;;13.05;4.30;;;;;;;18.55;100.00;98226.47;5063401;28;20044;-78
2021/06/04 05:38:32;;;;;;;8.50;4.15;;;;;;;18.57;100.00;98228.84;5061530;28;20504;-78
2021/06/04 05:40:59;;;;;;;12.35;4.22;;;;;;;18.58;100.00;98231.22;5070545;28;20045;-78
2021/06/04 05:43:33;;;;;;;8.35;4.22;;;;;;;18.51;100.00;98228.31;5072450;28;20044;-78
2021/06/04 05:46:00;;;;;;;13.05;4.10;;;;;;;18.56;100.00;98230.78;5050108;28;20052;-77
2021/06/04 05:48:28;;;;;;;19.85;5.03;;;;;;;18.65;100.00;98242.41;5061884;28;20040;-77
2021/06/04 05:51:01;;;;;;;17.48;4.80;;;;;;;18.67;100.00;98239.28;5071683;28;20044;-78
2021/06/04 05:53:31;;;;;;;14.85;4.40;;;;;;;18.79;100.00;98241.94;5073873;28;20040;-78
2021/06/04 05:55:58;;;;;;;15.40;4.15;;;;;;;18.83;100.00;98251.06;5071962;28;20106;-79
2021/06/04 05:58:27;;;;;;;18.05;4.47;;;;;;;18.95;100.00;98236.47;5054035;28;20045;-79
2021/06/04 06:00:56;;;;;;;12.60;4.28;;;;;;;18.92;100.00;98237.97;5055495;28;20059;-79
2021/06/04 06:03:29;;;;;;;17.13;4.47;;;;;;;18.99;100.00;98242.84;5075704;28;20099;-79
2021/06/04 06:05:57;;;;;;;17.55;4.70;;;;;;;19.02;100.00;98236.66;5052348;28;20229;-78
2021/06/04 06:08:25;;;;;;;11.00;3.97;;;;;;;18.98;100.00;98236.56;5073242;28;20044;-79
2021/06/04 06:10:52;;;;;;;20.70;4.60;;;;;;;19.30;100.00;98235.34;5075147;28;20052;-79
2021/06/04 06:13:20;;;;;;;16.67;4.45;;;;;;;19.26;100.00;98234.50;5072626;28;20558;-78
2021/06/04 06:15:47;;;;;;;12.57;3.72;;;;;;;19.53;100.00;98242.97;5071981;28;20062;-78
2021/06/04 06:18:14;;;;;;;9.43;4.03;;;;;;;19.56;100.00;98256.78;5064287;28;20497;-79
2021/06/04 06:20:43;;;;;;;26.42;4.25;;;;;;;19.64;100.00;98266.75;5072151;28;20052;-79
2021/06/04 06:23:13;;;;;;;12.50;4.40;;;;;;;19.49;100.00;98259.38;5071973;28;20044;-78
2021/06/04 06:25:45;;;;;;;25.98;12.05;;;;;;;19.50;100.00;98255.47;5072601;28;20055;-79
2021/06/04 06:28:16;;;;;;;22.25;10.75;;;;;;;19.42;100.00;98256.47;5069256;28;20049;-79
2021/06/04 06:30:43;;;;;;;11.73;4.65;;;;;;;19.43;100.00;98262.75;5071712;28;20127;-79
2021/06/04 06:33:10;;;;;;;23.88;11.25;;;;;;;19.52;100.00;98257.84;5071342;28;20479;-79
2021/06/04 06:35:46;;;;;;;15.32;5.78;;;;;;;19.53;100.00;98263.00;5074901;28;20051;-77
2021/06/04 06:38:13;;;;;;;17.88;4.75;;;;;;;19.62;100.00;98269.06;5068429;28;20044;-78
2021/06/04 06:40:41;;;;;;;14.18;4.88;;;;;;;19.73;100.00;98272.06;5071750;28;20047;-78
2021/06/04 06:43:08;;;;;;;11.10;4.00;;;;;;;19.90;100.00;98269.69;5070036;28;20114;-79
2021/06/04 06:45:36;;;;;;;19.73;4.45;;;;;;;20.10;100.00;98273.28;5054986;28;20137;-78
2021/06/04 06:48:03;;;;;;;21.63;4.53;;;;;;;20.31;100.00;98268.22;5069432;28;20040;-77
2021/06/04 06:50:32;;;;;;;13.25;4.28;;;;;;;20.49;100.00;98272.09;5068688;28;20136;-78
2021/06/04 06:53:02;;;;;;;9.05;3.50;;;;;;;20.45;100.00;98267.69;5047181;28;20037;-78
2021/06/04 06:55:29;;;;;;;8.70;4.30;;;;;;;20.76;100.00;98280.47;5053917;28;20454;-78
2021/06/04 06:57:56;;;;;;;15.63;4.03;;;;;;;20.97;100.00;98280.84;5054089;28;20563;-78
2021/06/04 07:00:28;;;;;;;17.27;3.72;;;;;;;20.99;100.00;98278.50;5073116;28;20124;-78
2021/06/04 07:02:55;;;;;;;12.70;2.92;;;;;;;21.11;100.00;98279.16;5073054;28;20044;-79
2021/06/04 07:05:23;;;;;;;8.77;2.88;;;;;;;21.34;100.00;98275.59;5054017;28;20086;-79
2021/06/04 07:07:49;;;;;;;4.15;2.50;;;;;;;21.24;100.00;98288.00;5075587;28;20048;-78
2021/06/04 07:10:19;;;;;;;9.02;2.38;;;;;;;21.39;100.00;98286.28;5073134;28;20259;-78
2021/06/04 07:12:52;;;;;;;4.35;2.22;;;;;;;21.52;100.00;98284.94;5069273;28;20116;-78
2021/06/04 07:15:22;;;;;;;6.05;1.95;;;;;;;21.61;100.00;98282.69;5070241;28;20098;-78
2021/06/04 07:17:53;;;;;;;5.47;2.30;;;;;;;21.62;100.00;98289.78;5068709;28;20534;-77
2021/06/04 07:20:20;;;;;;;4.80;2.20;;;;;;;21.68;100.00;98293.81;5063776;28;20520;-78
2021/06/04 07:22:47;;;;;;;11.93;2.33;;;;;;;21.75;100.00;98296.69;5069186;28;20106;-78
2021/06/04 07:25:15;;;;;;;10.05;2.22;;;;;;;21.82;100.00;98302.28;5049430;28;20097;-78
2021/06/04 07:27:47;;;;;;;12.05;2.38;;;;;;;21.91;100.00;98299.31;5071401;28;20051;-77
2021/06/04 07:30:20;;;;;;;9.48;2.42;;;;;;;21.99;100.00;98309.28;5065502;28;20108;-78
2021/06/04 07:32:46;;;;;;;4.55;2.10;;;;;;;21.91;100.00;98316.63;5052948;28;20435;-78
2021/06/04 07:35:18;;;;;;;10.55;2.65;;;;;;;21.81;100.00;98311.72;5053344;28;20385;-78
2021/06/04 07:37:45;;;;;;;9.77;2.47;;;;;;;21.68;100.00;98308.38;5093260;28;20067;-80
2021/06/04 07:40:19;;;;;;;10.00;2.40;;;;;;;21.61;100.00;98307.50;5091161;28;20120;-79
2021/06/04 07:42:47;;;;;;;14.38;3.13;;;;;;;21.64;100.00;98313.06;5076811;28;20056;-78
2021/06/04 07:45:21;;;;;;;60.22;6.22;;;;;;;21.62;100.00;98309.09;5071611;28;20644;-78
2021/06/04 07:47:48;;;;;;;72.85;7.30;;;;;;;21.35;100.00;98307.47;5087104;28;20048;-77
2021/06/04 07:50:15;;;;;;;120.03;11.18;;;;;;;21.28;100.00;98318.38;5069158;28;20044;-77
2021/06/04 07:52:42;;;;;;;72.38;7.50;;;;;;;21.18;100.00;98316.25;5068533;28;20040;-77
2021/06/04 07:55:12;;;;;;;13.07;3.10;;;;;;;21.48;100.00;98317.94;5084030;28;20450;-77
2021/06/04 07:57:38;;;;;;;12.77;2.53;;;;;;;21.62;100.00;98315.41;5048661;28;20044;-77
2021/06/04 08:00:09;;;;;;;21.50;13.32;;;;;;;21.53;100.00;98323.13;5066990;28;20045;-78
2021/06/04 08:02:36;;;;;;;6.32;3.30;;;;;;;21.48;100.00;98319.88;5049560;28;20047;-78
2021/06/04 08:05:04;;;;;;;5.25;2.10;;;;;;;21.61;100.00;98315.75;5067212;28;20185;-77
2021/06/04 08:07:30;;;;;;;8.45;2.67;;;;;;;21.41;100.00;98319.78;5045537;28;20416;-77
2021/06/04 08:09:57;;;;;;;9.63;2.72;;;;;;;21.34;100.00;98325.97;5072617;28;20048;-78
2021/06/04 08:12:30;;;;;;;15.30;2.70;;;;;;;21.47;100.00;98315.56;5089661;28;20048;-78
2021/06/04 08:14:59;;;;;;;13.35;2.95;;;;;;;21.56;100.00;98307.81;5085154;28;20101;-77
2021/06/04 08:17:27;;;;;;;6.88;2.45;;;;;;;21.59;100.00;98307.88;5085978;28;20048;-78
2021/06/04 08:19:54;;;;;;;8.25;2.58;;;;;;;21.70;100.00;98319.81;5080017;28;20048;-77
2021/06/04 08:22:22;;;;;;;7.00;2.53;;;;;;;21.77;100.00;98318.34;5069203;28;20546;-77
2021/06/04 08:24:49;;;;;;;17.85;3.42;;;;;;;21.80;100.00;98326.69;5066124;28;20564;-76
2021/06/04 08:27:17;;;;;;;18.58;3.35;;;;;;;21.79;100.00;98321.53;5042428;28;20442;-77
2021/06/04 08:29:47;;;;;;;8.45;2.78;;;;;;;21.76;100.00;98331.34;5067297;28;20044;-78
2021/06/04 08:32:15;;;;;;;10.85;2.90;;;;;;;21.73;100.00;98323.84;5066840;28;20048;-76
2021/06/04 08:34:42;;;;;;;5.03;2.83;;;;;;;21.79;100.00;98324.28;5064297;28;20079;-77
2021/06/04 08:37:09;;;;;;;10.90;2.95;;;;;;;21.76;100.00;98325.06;5029596;28;20052;-77
2021/06/04 08:39:39;;;;;;;12.77;2.40;;;;;;;21.89;100.00;98318.97;5066454;28;20048;-77
2021/06/04 08:42:18;;;;;;;6.65;2.60;;;;;;;22.09;100.00;98331.44;5050175;28;20048;-77
2021/06/04 08:44:59;;;;;;;12.32;2.65;;;;;;;22.30;100.00;98333.69;5068186;28;20055;-77
2021/06/04 08:47:31;;;;;;;8.57;2.50;;;;;;;22.31;100.00;98336.09;5069772;28;20040;-78
2021/06/04 08:50:26;;;;;;;6.03;2.60;;;;;;;22.49;100.00;98328.03;5067850;28;20106;-77
2021/06/04 08:53:00;;;;;;;10.18;2.95;;;;;;;22.45;100.00;98331.94;5050853;28;20511;-76
2021/06/04 08:55:55;;;;;;;4.75;2.40;;;;;;;22.66;100.00;98332.22;5050503;28;20114;-77
2021/06/04 08:58:53;;;;;;;5.00;2.70;;;;;;;22.85;100.00;98332.81;5049955;28;20045;-76
2021/06/04 09:01:35;;;;;;;4.70;2.25;;;;;;;23.02;100.00;98331.41;5050154;28;20625;-76
2021/06/04 09:04:23;;;;;;;10.25;2.40;;;;;;;23.09;100.00;98330.69;5069079;28;20052;-76
2021/06/04 09:06:57;;;;;;;4.50;2.42;;;;;;;23.13;100.00;98334.25;5069162;28;20091;-76
2021/06/04 09:09:29;;;;;;;6.50;2.45;;;;;;;23.51;100.00;98329.09;5049781;28;20048;-77
2021/06/04 09:12:00;;;;;;;10.68;2.47;;;;;;;23.22;100.00;98324.50;5069123;28;20548;-77
2021/06/04 09:14:28;;;;;;;10.70;2.80;;;;;;;23.21;100.00;98324.88;5068527;28;20457;-77
2021/06/04 09:17:21;;;;;;;7.53;2.58;;;;;;;23.34;100.00;98326.16;5051836;28;20172;-77
2021/06/04 09:20:15;;;;;;;9.15;2.50;;;;;;;23.40;100.00;98321.91;5048754;28;20104;-76
2021/06/04 09:22:46;;;;;;;8.43;2.65;;;;;;;23.78;100.00;98328.91;5067957;28;20048;-76
2021/06/04 09:25:17;;;;;;;6.72;2.72;;;;;;;23.97;100.00;98328.66;5050714;28;20052;-76
2021/06/04 09:27:50;;;;;;;5.72;2.65;;;;;;;24.10;96.33;98327.19;5071867;28;20047;-76
2021/06/04 09:30:25;;;;;;;10.88;2.58;;;;;;;24.27;92.60;98320.94;5070868;28;20079;-76
2021/06/04 09:33:20;;;;;;;6.53;2.37;;;;;;;24.21;91.91;98330.00;5044382;23;20049;-80
2021/06/04 09:36:14;;;;;;;7.95;2.60;;;;;;;23.97;80.46;98323.13;5030785;28;20049;-80
2021/06/04 09:38:46;;;;;;;6.70;2.50;;;;;;;23.63;78.82;98330.00;5031228;28;20117;-79
2021/06/04 09:41:24;;;;;;;4.93;2.60;;;;;;;23.35;79.55;98330.53;5039035;28;20052;-79
2021/06/04 09:44:14;;;;;;;7.55;2.25;;;;;;;23.24;100.00;98332.41;5050072;28;20049;-80
2021/06/04 09:46:57;;;;;;;5.88;2.33;;;;;;;23.16;85.09;98322.44;5056342;28;20851;-80
2021/06/04 09:49:43;;;;;;;10.18;2.70;;;;;;;23.13;95.80;98324.00;5048573;28;20049;-80
2021/06/04 09:52:39;;;;;;;19.15;2.47;;;;;;;23.26;90.42;98327.28;5051056;28;20060;-80
2021/06/04 09:55:15;;;;;;;14.43;2.60;;;;;;;23.32;95.74;98332.09;5051338;28;20072;-80
2021/06/04 09:57:56;;;;;;;11.65;3.20;;;;;;;23.00;96.41;98330.19;5052772;28;20043;-80
2021/06/04 10:00:31;;;;;;;10.77;2.92;;;;;;;22.87;97.02;98332.41;5052554;28;20523;-80
2021/06/04 10:03:19;;;;;;;50.70;5.32;;;;;;;22.74;100.00;98333.84;5034612;28;20037;-79
2021/06/04 10:05:47;;;;;;;20.38;3.92;;;;;;;22.56;100.00;98324.56;5050417;28;20045;-78
2021/06/04 10:08:25;;;;;;;16.88;3.25;;;;;;;22.51;100.00;98331.22;5039009;28;20057;-81
2021/06/04 10:11:12;;;;;;;52.95;6.93;;;;;;;22.50;100.00;98324.13;5053656;28;20404;-79
2021/06/04 10:13:48;;;;;;;12.63;2.90;;;;;;;22.52;100.00;98315.44;5053905;28;20052;-80
2021/06/04 10:16:32;;;;;;;61.47;5.95;;;;;;;22.44;100.00;98322.84;5034931;28;20512;-80
2021/06/04 10:18:58;;;;;;;12.43;3.30;;;;;;;22.32;100.00;98318.34;5014472;28;20524;-80
2021/06/04 10:21:34;;;;;;;14.90;2.50;;;;;;;21.99;100.00;98306.50;5030103;28;20057;-79
2021/06/04 10:24:03;;;;;;;110.78;10.80;;;;;;;22.02;100.00;98317.56;5005485;28;20119;-79
2021/06/04 10:26:38;;;;;;;62.67;6.65;;;;;;;21.95;100.00;98311.97;5039786;28;20078;-83
2021/06/04 10:29:24;;;;;;;173.00;14.57;;;;;;;21.73;100.00;98297.03;5002147;28;20052;-84
2021/06/04 10:32:16;;;;;;;30.30;4.18;;;;;;;21.80;100.00;98326.69;5055295;28;20190;-80
2021/06/04 10:35:05;;;;;;;5.72;2.60;;;;;;;21.79;100.00;98319.56;5052902;28;20079;-83
2021/06/04 10:38:02;;;;;;;8.18;2.47;;;;;;;21.81;100.00;98320.00;5058398;28;20037;-78
2021/06/04 10:40:56;;;;;;;21.52;3.13;;;;;;;21.66;100.00;98298.91;5015772;28;20048;-81
2021/06/04 10:43:54;;;;;;;69.93;5.93;;;;;;;21.66;100.00;98296.94;5047888;28;20510;-81
2021/06/04 10:46:57;;;;;;;171.30;14.32;;;;;;;21.88;100.00;98295.34;5033422;28;20053;-81
2021/06/04 10:50:09;;;;;;;51.17;5.97;;;;;;;21.95;100.00;98323.00;5053154;28;20231;-81
2021/06/04 10:53:00;;;;;;;85.72;8.05;;;;;;;22.11;100.00;98315.34;5052768;28;20080;-81
2021/06/04 10:55:36;;;;;;;160.63;15.85;;;;;;;22.05;100.00;98316.81;5051394;28;20049;-74
2021/06/04 10:58:23;;;;;;;241.65;20.23;;;;;;;22.18;100.00;98307.16;5032354;28;20069;-78
2021/06/04 11:00:56;;;;;;;5.57;2.67;;;;;;;22.31;100.00;98304.94;5028003;28;20044;-79
2021/06/04 11:03:53;;;;;;;5.68;2.70;;;;;;;22.20;100.00;98296.53;5029709;28;20052;-81
2021/06/04 11:07:10;;;;;;;44.80;5.15;;;;;;;22.61;100.00;98305.69;5019100;28;20060;-82
2021/06/04 11:09:55;;;;;;;16.35;3.35;;;;;;;22.66;100.00;98299.09;5017050;28;20080;-82
2021/06/04 11:12:40;;;;;;;8.33;2.50;;;;;;;22.82;91.51;98305.16;5031761;28;20052;-82
2021/06/04 11:15:51;;;;;;;4.38;2.53;;;;;;;22.94;89.98;98291.09;5015630;28;20057;-82
2021/06/04 11:18:48;;;;;;;4.95;2.40;;;;;;;23.24;96.89;98302.81;4983195;28;20056;-82
2021/06/04 11:21:43;;;;;;;9.23;2.40;;;;;;;23.10;100.00;98282.56;5045786;28;20135;-81
2021/06/04 11:24:52;;;;;;;10.45;2.42;;;;;;;23.16;100.00;98308.63;5039481;28;20095;-80
2021/06/04 11:27:27;;;;;;;11.25;2.80;;;;;;;23.20;100.00;98285.38;5035072;28;20055;-82
2021/06/04 11:29:55;;;;;;;7.20;2.40;;;;;;;23.53;100.00;98292.81;5029398;28;20045;-83
2021/06/04 11:33:14;;;;;;;242.32;19.13;;;;;;;23.25;100.00;98298.88;5023542;28;20056;-82
2021/06/04 11:36:05;;;;;;;;;;;;;;;;;;;;;
2021/06/04 11:38:51;;;;;;;129.05;11.63;;;;;;;23.55;100.00;98293.22;5061753;28;20049;-83
2021/06/04 11:41:37;;;;;;;39.03;4.15;;;;;;;24.09;100.00;98307.00;5051217;28;20138;-82
2021/06/04 11:44:47;;;;;;;18.55;3.22;;;;;;;24.08;100.00;98291.56;5013974;28;20423;-82
2021/06/04 11:47:17;;;;;;;6.68;2.80;;;;;;;24.50;96.93;98290.97;5012695;28;20473;-81
2021/06/04 11:49:53;;;;;;;3.92;2.80;;;;;;;24.66;99.28;98287.84;5029533;28;20535;-82
2021/06/04 11:52:21;;;;;;;;;;;;;;;24.92;98.79;98295.06;5031836;28;20056;-80
2021/06/04 11:54:48;;;;;;;11.15;2.80;;;;;;;24.91;79.18;98280.41;5048612;28;20406;-80
2021/06/04 11:58:01;;;;;;;7.78;2.60;;;;;;;25.17;91.49;98285.59;5031301;28;20056;-81
2021/06/04 12:00:39;;;;;;;13.45;3.28;;;;;;;24.92;90.89;98282.00;5007370;28;20053;-83
2021/06/04 12:03:09;;;;;;;7.20;2.97;;;;;;;25.07;89.93;98274.50;5030814;28;20468;-81
2021/06/04 12:05:47;;;;;;;7.43;2.70;;;;;;;25.26;80.81;98271.34;5048260;28;20045;-81
2021/06/04 12:08:28;;;;;;;6.85;2.95;;;;;;;25.40;81.47;98261.03;5030323;28;20045;-79
2021/06/04 12:11:02;;;;;;;5.90;2.88;;;;;;;25.58;82.94;98266.59;5056531;28;20053;-82
2021/06/04 12:13:45;;;;;;;9.90;2.95;;;;;;;25.78;87.19;98251.09;5018777;28;20586;-81
2021/06/04 12:16:24;;;;;;;8.00;2.90;;;;;;;26.07;92.58;98253.81;5020612;28;20045;-81
2021/06/04 12:19:23;;;;;;;13.25;3.30;;;;;;;26.43;72.62;98246.91;5043579;28;20072;-80